Terminal Aerodrome Forecast
Issued by NWS

Home | Current Version | Previous Version | Text Only | Print | Product List | Glossary On
Versions: 1 2 3 4 5 6 7 8 9 10 11 12 13 14
000
FTAK31 PAJN 060700 AAA
TAFAKT
TAF AMD
PAKT 060711Z 0607/0706 16005KT P6SM SCT006
      TEMPO 0607/0611 BKN006
     FM061100 16004KT 6SM BR FEW002 OVC006
     FM061700 35008KT P6SM FEW150
     FM070300 VRB05KT P6SM SCT150
      AMD LTD TO CLD VIS AND WIND 0606/0615=

USA.gov is the U.S. government's official web portal to all federal, state and local government web resources and services.